createdAt,value
2023-11-07T06:38:27.222Z,10.10
2023-11-07T06:40:54.369Z,10.10
2023-11-07T06:43:21.494Z,10.10
2023-11-07T06:45:48.989Z,10.20
2023-11-07T06:48:16.612Z,10.20
2023-11-07T06:50:43.906Z,10.20
2023-11-07T06:53:11.346Z,10.30
2023-11-07T06:55:39.181Z,10.40
2023-11-07T06:58:06.346Z,10.30
2023-11-07T07:00:35.038Z,10.20
2023-11-07T07:03:03.068Z,10.00
2023-11-07T07:05:30.600Z,9.90
2023-11-07T07:07:58.284Z,9.70
2023-11-07T07:10:26.628Z,9.80
2023-11-07T07:12:54.969Z,9.80
2023-11-07T07:15:22.379Z,9.90
2023-11-07T07:17:49.715Z,9.90
2023-11-07T07:20:17.557Z,9.90
2023-11-07T07:22:46.153Z,9.90
2023-11-07T07:25:22.609Z,10.00
2023-11-07T07:27:50.642Z,10.10
2023-11-07T07:30:23.228Z,10.10
2023-11-07T07:32:52.201Z,10.10
2023-11-07T07:35:22.537Z,10.20
2023-11-07T07:37:54.265Z,10.30
2023-11-07T07:40:27.917Z,10.30
2023-11-07T07:43:10.807Z,10.40
2023-11-07T07:45:44.672Z,10.50
2023-11-07T07:48:12.763Z,10.60
2023-11-07T07:50:43.686Z,10.60
2023-11-07T07:53:12.333Z,10.60
2023-11-07T07:55:45.068Z,10.60
2023-11-07T07:58:12.703Z,10.70
2023-11-07T08:00:40.073Z,10.60
2023-11-07T08:03:11.507Z,10.60
2023-11-07T08:05:42.630Z,10.60
2023-11-07T08:08:11.151Z,10.50
2023-11-07T08:10:40.264Z,10.40
2023-11-07T08:13:11.918Z,10.30
2023-11-07T08:15:39.563Z,10.30
2023-11-07T08:18:08.728Z,10.00
2023-11-07T08:20:38.560Z,9.80
2023-11-07T08:23:06.634Z,9.80
2023-11-07T08:25:34.483Z,10.00
2023-11-07T08:28:02.332Z,10.10
2023-11-07T08:30:29.448Z,10.30
2023-11-07T08:32:56.683Z,10.50
2023-11-07T08:35:24.390Z,10.60
2023-11-07T08:37:52.762Z,10.60
2023-11-07T08:40:22.879Z,10.50
2023-11-07T08:42:52.230Z,10.40
2023-11-07T08:45:22.850Z,10.30
2023-11-07T08:47:54.631Z,10.30
2023-11-07T08:50:22.651Z,10.40
2023-11-07T08:52:54.368Z,10.30
2023-11-07T08:55:22.814Z,10.40
2023-11-07T08:57:53.150Z,10.50
2023-11-07T09:00:23.925Z,10.70
2023-11-07T09:02:54.472Z,10.60
2023-11-07T09:05:23.943Z,10.50
2023-11-07T09:07:51.829Z,10.50
2023-11-07T09:10:21.867Z,10.50
2023-11-07T09:12:49.036Z,10.60
2023-11-07T09:15:16.261Z,10.80
2023-11-07T09:17:44.377Z,11.00
2023-11-07T09:20:16.176Z,11.10
2023-11-07T09:22:43.982Z,11.10
2023-11-07T09:25:13.474Z,11.20
2023-11-07T09:27:41.165Z,11.10
2023-11-07T09:30:11.774Z,11.00
2023-11-07T09:32:40.872Z,11.10
2023-11-07T09:35:09.586Z,11.00
2023-11-07T09:37:41.543Z,11.00
2023-11-07T09:40:23.108Z,11.20
2023-11-07T09:42:52.418Z,11.10
2023-11-07T09:45:21.105Z,11.00
2023-11-07T09:47:50.932Z,11.00
2023-11-07T09:50:22.897Z,10.80
2023-11-07T09:52:52.242Z,10.90
2023-11-07T09:55:19.595Z,10.80
2023-11-07T09:58:12.061Z,10.90
2023-11-07T10:00:46.938Z,10.90
2023-11-07T10:03:16.189Z,10.90
2023-11-07T10:05:44.962Z,10.90
2023-11-07T10:08:12.129Z,11.00
2023-11-07T10:10:41.021Z,11.00
2023-11-07T10:13:13.427Z,11.10
2023-11-07T10:15:42.652Z,11.10
2023-11-07T10:18:12.850Z,11.00
2023-11-07T10:20:51.589Z,10.80
2023-11-07T10:23:19.679Z,10.90
2023-11-07T10:25:52.803Z,10.80
2023-11-07T10:28:23.222Z,10.70
2023-11-07T10:30:51.771Z,10.70
2023-11-07T10:33:36.351Z,10.80
2023-11-07T10:36:04.928Z,11.00
2023-11-07T10:38:32.781Z,11.10
2023-11-07T10:41:03.050Z,11.10
2023-11-07T10:43:37.779Z,11.10
2023-11-07T10:46:08.342Z,11.10
2023-11-07T10:48:43.319Z,11.10
2023-11-07T10:51:15.013Z,11.00
2023-11-07T10:53:44.128Z,11.00
2023-11-07T10:56:21.634Z,10.90
2023-11-07T10:59:03.047Z,10.80
2023-11-07T11:01:35.321Z,10.70
2023-11-07T11:04:04.235Z,10.50
2023-11-07T11:06:33.547Z,10.50
2023-11-07T11:09:08.011Z,10.50
2023-11-07T11:11:36.140Z,10.60
2023-11-07T11:14:05.505Z,10.60
2023-11-07T11:16:33.814Z,10.60
2023-11-07T11:19:16.673Z,10.60
2023-11-07T11:22:01.582Z,10.60
2023-11-07T11:25:02.635Z,10.80
2023-11-07T11:27:44.024Z,10.80
2023-11-07T11:30:11.885Z,10.70
2023-11-07T11:35:22.812Z,10.60
2023-11-07T11:38:18.037Z,10.60
2023-11-07T11:40:56.939Z,10.50
2023-11-07T11:43:33.601Z,10.50
2023-11-07T11:46:13.137Z,10.40
2023-11-07T11:48:53.083Z,10.30
2023-11-07T11:51:40.575Z,10.10
2023-11-07T11:54:12.725Z,10.20
2023-11-07T11:56:52.106Z,10.10
2023-11-07T11:59:30.499Z,10.00
2023-11-07T12:02:02.401Z,10.10
2023-11-07T12:04:40.499Z,10.20
2023-11-07T12:07:10.663Z,10.30
2023-11-07T12:09:39.642Z,10.40
2023-11-07T12:12:08.911Z,10.40
2023-11-07T12:14:58.612Z,10.30
2023-11-07T12:17:30.513Z,10.40
2023-11-07T12:20:08.111Z,10.30
2023-11-07T12:22:36.273Z,10.30
2023-11-07T12:25:15.289Z,10.20
2023-11-07T12:27:43.315Z,10.20
2023-11-07T12:30:18.735Z,10.00
2023-11-07T12:32:47.652Z,10.20
2023-11-07T12:35:26.221Z,10.30
2023-11-07T12:37:54.225Z,10.50
2023-11-07T12:40:22.142Z,10.60
2023-11-07T12:42:57.205Z,10.70
2023-11-07T12:45:35.603Z,10.80
2023-11-07T12:48:08.022Z,10.70
2023-11-07T12:50:43.537Z,10.50
2023-11-07T12:53:11.529Z,10.50
2023-11-07T12:55:39.605Z,10.40
2023-11-07T12:58:08.656Z,10.50
2023-11-07T13:00:57.679Z,10.50
2023-11-07T13:03:26.972Z,10.50
2023-11-07T13:06:06.070Z,10.40
2023-11-07T13:08:37.823Z,10.40
2023-11-07T13:11:10.138Z,10.50
2023-11-07T13:13:37.875Z,10.50
2023-11-07T13:16:05.431Z,10.70
2023-11-07T13:18:32.681Z,10.70
2023-11-07T13:20:59.907Z,10.70
2023-11-07T13:23:27.023Z,10.50
2023-11-07T13:25:54.381Z,10.40
2023-11-07T13:28:22.188Z,10.30
2023-11-07T13:30:49.604Z,10.10
2023-11-07T13:33:16.878Z,10.20
2023-11-07T13:35:49.293Z,10.10
2023-11-07T13:38:18.711Z,10.10
2023-11-07T13:40:46.858Z,10.10
2023-11-07T13:43:14.430Z,10.10
2023-11-07T13:45:41.727Z,10.10
2023-11-07T13:48:10.881Z,10.10
2023-11-07T13:50:38.154Z,10.10
2023-11-07T13:53:05.363Z,10.10
2023-11-07T13:55:33.618Z,10.00
2023-11-07T13:58:04.261Z,10.00
2023-11-07T14:00:32.460Z,10.00
2023-11-07T14:02:59.588Z,10.00
2023-11-07T14:05:26.856Z,10.00
2023-11-07T14:07:54.886Z,10.00
2023-11-07T14:10:26.049Z,9.90
2023-11-07T14:12:53.808Z,10.00
2023-11-07T14:15:32.882Z,10.00
2023-11-07T14:18:06.115Z,10.00
2023-11-07T14:20:38.051Z,10.00
2023-11-07T14:23:05.829Z,10.00
2023-11-07T14:25:33.042Z,10.10
2023-11-07T14:28:07.387Z,10.00
2023-11-07T14:30:39.925Z,10.00
2023-11-07T14:33:08.937Z,10.00
2023-11-07T14:35:36.269Z,10.10
2023-11-07T14:38:04.878Z,10.10
2023-11-07T14:40:32.482Z,10.10
2023-11-07T14:43:02.170Z,10.00
2023-11-07T14:45:29.906Z,10.10
2023-11-07T14:48:11.147Z,10.10
2023-11-07T14:50:40.702Z,10.10
2023-11-07T14:53:08.625Z,10.10
2023-11-07T14:55:36.832Z,10.10
2023-11-07T14:58:08.168Z,10.10
2023-11-07T15:00:41.758Z,10.20
2023-11-07T15:03:12.058Z,10.20
2023-11-07T15:05:41.135Z,10.10
2023-11-07T15:08:08.779Z,10.20
2023-11-07T15:10:36.888Z,10.20
2023-11-07T15:13:05.914Z,10.20
2023-11-07T15:15:34.404Z,10.30
2023-11-07T15:18:03.567Z,10.20
2023-11-07T15:20:33.271Z,10.20
2023-11-07T15:23:02.981Z,10.20
2023-11-07T15:25:35.575Z,10.20
2023-11-07T15:28:03.695Z,10.20
2023-11-07T15:30:36.893Z,10.20
2023-11-07T15:33:05.079Z,10.20
2023-11-07T15:35:37.980Z,10.20
2023-11-07T15:38:10.389Z,10.20
2023-11-07T15:40:41.518Z,10.20
2023-11-07T15:43:10.300Z,10.20
2023-11-07T15:45:37.957Z,10.20
2023-11-07T15:48:11.668Z,10.20
2023-11-07T15:50:40.876Z,10.10
2023-11-07T15:53:09.921Z,10.00
2023-11-07T15:55:38.841Z,10.00
2023-11-07T15:58:06.450Z,10.00
2023-11-07T16:00:34.396Z,10.00
2023-11-07T16:03:01.985Z,10.00
2023-11-07T16:05:34.079Z,10.00
2023-11-07T16:08:02.928Z,10.00
2023-11-07T16:10:32.852Z,10.00
2023-11-07T16:13:00.342Z,10.10
2023-11-07T16:15:27.574Z,10.10
2023-11-07T16:17:55.300Z,10.10
2023-11-07T16:20:24.356Z,10.20
2023-11-07T16:22:51.503Z,10.10
2023-11-07T16:25:18.545Z,10.10
2023-11-07T16:27:46.131Z,10.10
2023-11-07T16:30:15.314Z,10.10
2023-11-07T16:32:42.839Z,10.20
2023-11-07T16:35:11.572Z,10.20
2023-11-07T16:37:39.662Z,10.20
2023-11-07T16:40:13.541Z,10.20
2023-11-07T16:42:42.205Z,10.20
2023-11-07T16:45:13.674Z,10.20
2023-11-07T16:47:43.244Z,10.20
2023-11-07T16:50:12.456Z,10.20
2023-11-07T16:52:41.243Z,10.20
2023-11-07T16:55:18.404Z,10.20
2023-11-07T16:57:46.511Z,10.20
2023-11-07T17:00:16.064Z,10.20
2023-11-07T17:02:43.723Z,10.10
2023-11-07T17:05:11.962Z,10.20
2023-11-07T17:07:39.804Z,10.20
2023-11-07T17:10:12.043Z,10.30
2023-11-07T17:12:39.757Z,10.40
2023-11-07T17:15:13.464Z,10.20
2023-11-07T17:17:42.072Z,10.10
2023-11-07T17:20:09.959Z,10.00
2023-11-07T17:22:40.485Z,9.80
2023-11-07T17:25:08.374Z,9.50
2023-11-07T17:27:36.652Z,9.50
2023-11-07T17:30:04.697Z,9.50
2023-11-07T17:32:32.750Z,9.30
2023-11-07T17:35:05.800Z,9.40
2023-11-07T17:37:33.706Z,9.30
2023-11-07T17:40:01.044Z,9.40
2023-11-07T17:42:28.417Z,9.40
2023-11-07T17:44:55.829Z,9.40
2023-11-07T17:47:23.894Z,9.50
2023-11-07T17:49:51.238Z,9.60
2023-11-07T17:52:19.660Z,9.60
2023-11-07T17:54:47.285Z,9.60
2023-11-07T17:57:14.474Z,9.60
2023-11-07T17:59:42.056Z,9.50
2023-11-07T18:02:09.305Z,9.50
2023-11-07T18:04:37.151Z,9.60
2023-11-07T18:07:04.273Z,9.60
2023-11-07T18:09:31.425Z,9.50
2023-11-07T18:11:58.614Z,9.50
2023-11-07T18:14:28.636Z,9.60
